sensor_id;sensor_type;location;lat;lon;timestamp;P1;durP1;ratioP1;P2;durP2;ratioP2
39566;SDS011;25241;41.978;14.664;2022-10-20T05:50:02;14.20;;;5.05;;
39566;SDS011;25241;41.978;14.664;2022-10-20T05:52:28;15.15;;;5.10;;
39566;SDS011;25241;41.978;14.664;2022-10-20T05:59:46;9.65;;;4.57;;
39566;SDS011;25241;41.978;14.664;2022-10-20T06:02:12;13.70;;;4.13;;
39566;SDS011;25241;41.978;14.664;2022-10-20T06:04:38;9.45;;;3.78;;
39566;SDS011;25241;41.978;14.664;2022-10-20T06:07:03;16.10;;;3.40;;
39566;SDS011;25241;41.978;14.664;2022-10-20T06:09:32;10.98;;;3.70;;
39566;SDS011;25241;41.978;14.664;2022-10-20T06:24:09;8.40;;;3.65;;
39566;SDS011;25241;41.978;14.664;2022-10-20T06:26:35;8.52;;;3.20;;
39566;SDS011;25241;41.978;14.664;2022-10-20T06:29:03;11.30;;;4.05;;
39566;SDS011;25241;41.978;14.664;2022-10-20T06:31:32;9.43;;;3.40;;
39566;SDS011;25241;41.978;14.664;2022-10-20T06:34:00;9.35;;;3.80;;
39566;SDS011;25241;41.978;14.664;2022-10-20T06:36:26;14.23;;;3.47;;
39566;SDS011;25241;41.978;14.664;2022-10-20T06:38:54;8.40;;;3.83;;
39566;SDS011;25241;41.978;14.664;2022-10-20T06:43:48;6.72;;;3.30;;
39566;SDS011;25241;41.978;14.664;2022-10-20T06:46:16;8.40;;;2.95;;
39566;SDS011;25241;41.978;14.664;2022-10-20T06:48:42;10.15;;;3.58;;
39566;SDS011;25241;41.978;14.664;2022-10-20T06:51:09;9.27;;;3.15;;
39566;SDS011;25241;41.978;14.664;2022-10-20T06:53:37;5.27;;;2.70;;
39566;SDS011;25241;41.978;14.664;2022-10-20T06:56:08;8.65;;;2.97;;
39566;SDS011;25241;41.978;14.664;2022-10-20T06:58:38;9.32;;;2.95;;
39566;SDS011;25241;41.978;14.664;2022-10-20T07:01:05;9.60;;;3.15;;
39566;SDS011;25241;41.978;14.664;2022-10-20T07:03:34;6.20;;;2.20;;
39566;SDS011;25241;41.978;14.664;2022-10-20T07:06:03;7.85;;;2.75;;
39566;SDS011;25241;41.978;14.664;2022-10-20T07:08:32;4.10;;;2.30;;
39566;SDS011;25241;41.978;14.664;2022-10-20T07:13:30;5.97;;;2.45;;
39566;SDS011;25241;41.978;14.664;2022-10-20T07:15:59;8.23;;;3.22;;
39566;SDS011;25241;41.978;14.664;2022-10-20T07:18:25;6.00;;;2.65;;
39566;SDS011;25241;41.978;14.664;2022-10-20T07:20:55;5.13;;;2.00;;
39566;SDS011;25241;41.978;14.664;2022-10-20T07:23:24;6.05;;;2.22;;
39566;SDS011;25241;41.978;14.664;2022-10-20T07:25:55;3.63;;;2.45;;
39566;SDS011;25241;41.978;14.664;2022-10-20T07:28:30;6.85;;;3.30;;
39566;SDS011;25241;41.978;14.664;2022-10-20T07:30:58;9.45;;;2.55;;
39566;SDS011;25241;41.978;14.664;2022-10-20T07:33:27;4.65;;;2.25;;
39566;SDS011;25241;41.978;14.664;2022-10-20T07:35:55;3.75;;;1.98;;
39566;SDS011;25241;41.978;14.664;2022-10-20T07:38:23;3.40;;;1.55;;
39566;SDS011;25241;41.978;14.664;2022-10-20T07:40:51;9.55;;;2.58;;
39566;SDS011;25241;41.978;14.664;2022-10-20T07:43:19;5.32;;;2.20;;
39566;SDS011;25241;41.978;14.664;2022-10-20T07:45:44;4.70;;;2.00;;
39566;SDS011;25241;41.978;14.664;2022-10-20T07:48:12;3.88;;;1.88;;
39566;SDS011;25241;41.978;14.664;2022-10-20T07:50:40;6.68;;;2.08;;
39566;SDS011;25241;41.978;14.664;2022-10-20T07:53:06;7.97;;;2.95;;
39566;SDS011;25241;41.978;14.664;2022-10-20T07:55:34;3.90;;;2.20;;
39566;SDS011;25241;41.978;14.664;2022-10-20T07:58:00;9.88;;;2.20;;
39566;SDS011;25241;41.978;14.664;2022-10-20T08:00:25;7.18;;;2.47;;
39566;SDS011;25241;41.978;14.664;2022-10-20T08:02:51;7.45;;;2.10;;
39566;SDS011;25241;41.978;14.664;2022-10-20T08:05:16;9.00;;;2.38;;
39566;SDS011;25241;41.978;14.664;2022-10-20T08:07:42;4.18;;;2.05;;
39566;SDS011;25241;41.978;14.664;2022-10-20T08:10:11;4.40;;;2.00;;
39566;SDS011;25241;41.978;14.664;2022-10-20T08:12:36;7.60;;;2.50;;
39566;SDS011;25241;41.978;14.664;2022-10-20T08:15:04;5.28;;;1.95;;
39566;SDS011;25241;41.978;14.664;2022-10-20T08:17:32;5.07;;;2.08;;
39566;SDS011;25241;41.978;14.664;2022-10-20T08:19:58;3.05;;;1.67;;
39566;SDS011;25241;41.978;14.664;2022-10-20T08:22:23;9.10;;;2.03;;
39566;SDS011;25241;41.978;14.664;2022-10-20T08:29:42;8.37;;;2.27;;
39566;SDS011;25241;41.978;14.664;2022-10-20T08:32:10;4.50;;;2.22;;
39566;SDS011;25241;41.978;14.664;2022-10-20T08:37:02;2.63;;;1.92;;
39566;SDS011;25241;41.978;14.664;2022-10-20T08:39:30;3.45;;;1.73;;
39566;SDS011;25241;41.978;14.664;2022-10-20T08:41:56;6.68;;;1.80;;
39566;SDS011;25241;41.978;14.664;2022-10-20T08:44:24;6.50;;;2.08;;
39566;SDS011;25241;41.978;14.664;2022-10-20T08:46:52;8.00;;;2.50;;
39566;SDS011;25241;41.978;14.664;2022-10-20T08:49:23;3.95;;;1.95;;
39566;SDS011;25241;41.978;14.664;2022-10-20T08:51:50;3.20;;;1.65;;
39566;SDS011;25241;41.978;14.664;2022-10-20T08:54:16;6.68;;;4.10;;
39566;SDS011;25241;41.978;14.664;2022-10-20T11:29:45;1.95;;;1.08;;
39566;SDS011;25241;41.978;14.664;2022-10-20T11:52:47;3.90;;;1.40;;
39566;SDS011;25241;41.978;14.664;2022-10-20T12:05:48;4.22;;;1.05;;
39566;SDS011;25241;41.978;14.664;2022-10-20T12:14:48;2.85;;;1.00;;
39566;SDS011;25241;41.978;14.664;2022-10-20T12:20:45;3.08;;;1.27;;
39566;SDS011;25241;41.978;14.664;2022-10-20T12:22:46;7.30;;;1.30;;
39566;SDS011;25241;41.978;14.664;2022-10-20T12:30:56;1.23;;;0.80;;
39566;SDS011;25241;41.978;14.664;2022-10-20T12:33:41;1.25;;;1.10;;
39566;SDS011;25241;41.978;14.664;2022-10-20T12:38:51;5.95;;;1.08;;
39566;SDS011;25241;41.978;14.664;2022-10-20T12:41:28;2.63;;;0.95;;
39566;SDS011;25241;41.978;14.664;2022-10-20T12:43:59;1.40;;;0.75;;
39566;SDS011;25241;41.978;14.664;2022-10-20T12:46:26;1.85;;;1.35;;
39566;SDS011;25241;41.978;14.664;2022-10-20T12:48:57;6.63;;;1.15;;
39566;SDS011;25241;41.978;14.664;2022-10-20T12:51:36;3.05;;;1.20;;
39566;SDS011;25241;41.978;14.664;2022-10-20T12:54:04;2.20;;;1.30;;
39566;SDS011;25241;41.978;14.664;2022-10-20T12:56:39;3.10;;;1.58;;
39566;SDS011;25241;41.978;14.664;2022-10-20T13:04:57;4.43;;;1.80;;
39566;SDS011;25241;41.978;14.664;2022-10-20T13:15:25;3.92;;;1.60;;
39566;SDS011;25241;41.978;14.664;2022-10-20T13:17:59;4.03;;;1.90;;
39566;SDS011;25241;41.978;14.664;2022-10-20T13:20:34;4.00;;;1.70;;
39566;SDS011;25241;41.978;14.664;2022-10-20T13:23:03;6.70;;;1.75;;
39566;SDS011;25241;41.978;14.664;2022-10-20T13:25:50;5.05;;;2.53;;
39566;SDS011;25241;41.978;14.664;2022-10-20T13:28:25;5.32;;;1.70;;
39566;SDS011;25241;41.978;14.664;2022-10-20T13:38:58;3.55;;;1.50;;
39566;SDS011;25241;41.978;14.664;2022-10-20T13:41:33;4.68;;;2.10;;
39566;SDS011;25241;41.978;14.664;2022-10-20T18:31:23;3.10;;;1.58;;
39566;SDS011;25241;41.978;14.664;2022-10-20T18:33:51;3.80;;;1.40;;
39566;SDS011;25241;41.978;14.664;2022-10-20T18:36:23;3.03;;;1.10;;
39566;SDS011;25241;41.978;14.664;2022-10-20T18:38:50;4.75;;;1.10;;
39566;SDS011;25241;41.978;14.664;2022-10-20T18:41:24;5.13;;;1.42;;
39566;SDS011;25241;41.978;14.664;2022-10-20T18:43:52;3.08;;;1.23;;
39566;SDS011;25241;41.978;14.664;2022-10-20T18:46:18;3.28;;;1.40;;
39566;SDS011;25241;41.978;14.664;2022-10-20T18:48:44;7.28;;;1.20;;
39566;SDS011;25241;41.978;14.664;2022-10-20T18:51:12;2.83;;;1.48;;
39566;SDS011;25241;41.978;14.664;2022-10-20T18:53:41;9.90;;;3.22;;
39566;SDS011;25241;41.978;14.664;2022-10-20T18:56:15;11.88;;;4.10;;
39566;SDS011;25241;41.978;14.664;2022-10-20T18:58:46;5.25;;;2.42;;
39566;SDS011;25241;41.978;14.664;2022-10-20T19:01:16;3.47;;;1.80;;
39566;SDS011;25241;41.978;14.664;2022-10-20T19:03:46;3.45;;;1.60;;
39566;SDS011;25241;41.978;14.664;2022-10-20T19:06:17;2.38;;;1.17;;
39566;SDS011;25241;41.978;14.664;2022-10-20T19:08:46;5.30;;;1.55;;
39566;SDS011;25241;41.978;14.664;2022-10-20T19:11:19;5.75;;;2.00;;
39566;SDS011;25241;41.978;14.664;2022-10-20T19:13:48;5.15;;;2.10;;
39566;SDS011;25241;41.978;14.664;2022-10-20T19:16:15;2.15;;;1.38;;
39566;SDS011;25241;41.978;14.664;2022-10-20T19:18:46;7.93;;;1.42;;
39566;SDS011;25241;41.978;14.664;2022-10-20T19:21:15;4.60;;;1.70;;
39566;SDS011;25241;41.978;14.664;2022-10-20T19:23:42;2.72;;;1.55;;
39566;SDS011;25241;41.978;14.664;2022-10-20T19:26:22;3.10;;;1.73;;
39566;SDS011;25241;41.978;14.664;2022-10-20T19:29:09;5.88;;;1.00;;
39566;SDS011;25241;41.978;14.664;2022-10-20T19:31:41;2.08;;;0.77;;
39566;SDS011;25241;41.978;14.664;2022-10-20T19:58:55;3.33;;;1.60;;
39566;SDS011;25241;41.978;14.664;2022-10-20T20:01:23;3.63;;;1.60;;
39566;SDS011;25241;41.978;14.664;2022-10-20T20:03:51;3.08;;;1.33;;
39566;SDS011;25241;41.978;14.664;2022-10-20T20:06:17;2.92;;;1.30;;
39566;SDS011;25241;41.978;14.664;2022-10-20T20:08:50;1.85;;;1.17;;
39566;SDS011;25241;41.978;14.664;2022-10-20T20:11:19;4.38;;;1.33;;
39566;SDS011;25241;41.978;14.664;2022-10-20T20:13:48;4.07;;;1.40;;
39566;SDS011;25241;41.978;14.664;2022-10-20T20:16:18;5.68;;;1.42;;
39566;SDS011;25241;41.978;14.664;2022-10-20T20:18:44;3.85;;;1.30;;
39566;SDS011;25241;41.978;14.664;2022-10-20T20:21:11;2.70;;;1.42;;
39566;SDS011;25241;41.978;14.664;2022-10-20T20:23:40;2.58;;;1.52;;
39566;SDS011;25241;41.978;14.664;2022-10-20T20:26:08;2.08;;;1.08;;
39566;SDS011;25241;41.978;14.664;2022-10-20T20:28:36;3.08;;;1.23;;
39566;SDS011;25241;41.978;14.664;2022-10-20T20:31:09;3.22;;;1.40;;
39566;SDS011;25241;41.978;14.664;2022-10-20T20:33:35;2.92;;;0.85;;
39566;SDS011;25241;41.978;14.664;2022-10-20T20:36:02;5.13;;;1.52;;
39566;SDS011;25241;41.978;14.664;2022-10-20T20:38:33;4.63;;;1.40;;
39566;SDS011;25241;41.978;14.664;2022-10-20T20:41:00;3.57;;;1.50;;
39566;SDS011;25241;41.978;14.664;2022-10-20T20:43:29;5.25;;;1.90;;
39566;SDS011;25241;41.978;14.664;2022-10-20T20:45:57;6.10;;;1.45;;
39566;SDS011;25241;41.978;14.664;2022-10-20T20:48:27;4.20;;;1.65;;
39566;SDS011;25241;41.978;14.664;2022-10-20T20:50:55;7.50;;;1.73;;
39566;SDS011;25241;41.978;14.664;2022-10-20T20:53:21;4.63;;;2.00;;
39566;SDS011;25241;41.978;14.664;2022-10-20T20:55:53;2.65;;;1.42;;
39566;SDS011;25241;41.978;14.664;2022-10-20T20:58:24;4.40;;;1.30;;
39566;SDS011;25241;41.978;14.664;2022-10-20T21:00:50;4.35;;;1.63;;
39566;SDS011;25241;41.978;14.664;2022-10-20T21:03:16;4.10;;;1.38;;
39566;SDS011;25241;41.978;14.664;2022-10-20T21:05:45;2.45;;;1.33;;
39566;SDS011;25241;41.978;14.664;2022-10-20T21:08:10;4.60;;;1.88;;
39566;SDS011;25241;41.978;14.664;2022-10-20T21:10:38;2.15;;;1.25;;
39566;SDS011;25241;41.978;14.664;2022-10-20T21:13:04;3.33;;;1.75;;
39566;SDS011;25241;41.978;14.664;2022-10-20T21:15:30;6.88;;;1.75;;
39566;SDS011;25241;41.978;14.664;2022-10-20T21:17:57;2.45;;;1.58;;
39566;SDS011;25241;41.978;14.664;2022-10-20T21:20:23;4.32;;;1.23;;
39566;SDS011;25241;41.978;14.664;2022-10-20T21:22:49;1.85;;;1.10;;
39566;SDS011;25241;41.978;14.664;2022-10-20T21:25:14;5.30;;;1.65;;
39566;SDS011;25241;41.978;14.664;2022-10-20T21:27:42;3.38;;;1.33;;
39566;SDS011;25241;41.978;14.664;2022-10-20T21:30:08;4.13;;;1.42;;
39566;SDS011;25241;41.978;14.664;2022-10-20T21:32:34;2.13;;;1.38;;
39566;SDS011;25241;41.978;14.664;2022-10-20T21:34:59;5.85;;;2.05;;
39566;SDS011;25241;41.978;14.664;2022-10-20T21:37:26;5.70;;;1.50;;
39566;SDS011;25241;41.978;14.664;2022-10-20T21:39:52;4.45;;;1.92;;
39566;SDS011;25241;41.978;14.664;2022-10-20T21:42:20;2.85;;;1.38;;
39566;SDS011;25241;41.978;14.664;2022-10-20T21:44:48;3.85;;;1.55;;
39566;SDS011;25241;41.978;14.664;2022-10-20T21:47:14;3.53;;;1.33;;
39566;SDS011;25241;41.978;14.664;2022-10-20T21:49:42;3.83;;;1.85;;
39566;SDS011;25241;41.978;14.664;2022-10-20T21:52:10;4.30;;;1.55;;
39566;SDS011;25241;41.978;14.664;2022-10-20T21:54:38;3.05;;;1.50;;
39566;SDS011;25241;41.978;14.664;2022-10-20T21:57:03;3.03;;;1.27;;
39566;SDS011;25241;41.978;14.664;2022-10-20T21:59:32;2.92;;;1.58;;
39566;SDS011;25241;41.978;14.664;2022-10-20T22:01:58;2.50;;;1.30;;
39566;SDS011;25241;41.978;14.664;2022-10-20T22:04:25;3.50;;;1.58;;
39566;SDS011;25241;41.978;14.664;2022-10-20T22:06:54;4.47;;;1.63;;
39566;SDS011;25241;41.978;14.664;2022-10-20T22:09:22;2.60;;;1.30;;
39566;SDS011;25241;41.978;14.664;2022-10-20T22:11:50;2.13;;;1.40;;
39566;SDS011;25241;41.978;14.664;2022-10-20T22:14:21;3.70;;;1.75;;
39566;SDS011;25241;41.978;14.664;2022-10-20T22:16:49;5.38;;;1.60;;
39566;SDS011;25241;41.978;14.664;2022-10-20T22:19:16;4.30;;;1.83;;
39566;SDS011;25241;41.978;14.664;2022-10-20T22:21:44;3.58;;;1.60;;
39566;SDS011;25241;41.978;14.664;2022-10-20T22:24:11;2.25;;;1.23;;
39566;SDS011;25241;41.978;14.664;2022-10-20T22:26:40;4.65;;;1.45;;
39566;SDS011;25241;41.978;14.664;2022-10-20T22:29:07;3.58;;;1.42;;
39566;SDS011;25241;41.978;14.664;2022-10-20T22:31:36;7.72;;;2.03;;
39566;SDS011;25241;41.978;14.664;2022-10-20T22:34:02;5.45;;;1.35;;
39566;SDS011;25241;41.978;14.664;2022-10-20T22:36:28;2.28;;;1.40;;
39566;SDS011;25241;41.978;14.664;2022-10-20T22:38:56;3.28;;;1.25;;
39566;SDS011;25241;41.978;14.664;2022-10-20T22:41:22;1.98;;;1.55;;
39566;SDS011;25241;41.978;14.664;2022-10-20T22:43:50;2.88;;;1.50;;
39566;SDS011;25241;41.978;14.664;2022-10-20T22:46:18;4.50;;;1.88;;
39566;SDS011;25241;41.978;14.664;2022-10-20T22:48:46;2.67;;;1.30;;
39566;SDS011;25241;41.978;14.664;2022-10-20T22:51:14;13.05;;;1.63;;
39566;SDS011;25241;41.978;14.664;2022-10-20T22:53:43;5.03;;;1.70;;
39566;SDS011;25241;41.978;14.664;2022-10-20T22:56:10;2.35;;;1.63;;
39566;SDS011;25241;41.978;14.664;2022-10-20T22:58:42;2.53;;;1.40;;
39566;SDS011;25241;41.978;14.664;2022-10-20T23:01:10;5.90;;;2.30;;
39566;SDS011;25241;41.978;14.664;2022-10-20T23:03:38;7.43;;;1.20;;
39566;SDS011;25241;41.978;14.664;2022-10-20T23:06:06;4.30;;;1.80;;
39566;SDS011;25241;41.978;14.664;2022-10-20T23:08:36;5.75;;;1.92;;
39566;SDS011;25241;41.978;14.664;2022-10-20T23:11:02;3.00;;;1.30;;
39566;SDS011;25241;41.978;14.664;2022-10-20T23:13:30;2.90;;;1.48;;
39566;SDS011;25241;41.978;14.664;2022-10-20T23:15:55;8.10;;;1.63;;
39566;SDS011;25241;41.978;14.664;2022-10-20T23:18:23;4.40;;;1.73;;
39566;SDS011;25241;41.978;14.664;2022-10-20T23:20:51;7.35;;;2.80;;
39566;SDS011;25241;41.978;14.664;2022-10-20T23:23:17;2.22;;;1.58;;
39566;SDS011;25241;41.978;14.664;2022-10-20T23:25:47;2.33;;;1.20;;
39566;SDS011;25241;41.978;14.664;2022-10-20T23:28:13;5.18;;;1.65;;
39566;SDS011;25241;41.978;14.664;2022-10-20T23:30:41;3.72;;;1.42;;
39566;SDS011;25241;41.978;14.664;2022-10-20T23:33:07;3.08;;;1.63;;
39566;SDS011;25241;41.978;14.664;2022-10-20T23:35:36;4.65;;;1.45;;
39566;SDS011;25241;41.978;14.664;2022-10-20T23:38:02;2.70;;;1.67;;
39566;SDS011;25241;41.978;14.664;2022-10-20T23:40:31;3.63;;;1.48;;
39566;SDS011;25241;41.978;14.664;2022-10-20T23:42:56;2.47;;;1.63;;
39566;SDS011;25241;41.978;14.664;2022-10-20T23:45:22;4.43;;;1.83;;
39566;SDS011;25241;41.978;14.664;2022-10-20T23:47:47;3.78;;;1.67;;
39566;SDS011;25241;41.978;14.664;2022-10-20T23:50:13;3.30;;;1.42;;
39566;SDS011;25241;41.978;14.664;2022-10-20T23:52:41;2.88;;;1.52;;
39566;SDS011;25241;41.978;14.664;2022-10-20T23:55:09;5.72;;;1.45;;
39566;SDS011;25241;41.978;14.664;2022-10-20T23:57:35;2.05;;;1.40;;
